createdAt,value
2022-08-17T00:00:43.215Z,9.32
2022-08-17T00:03:15.629Z,8.52
2022-08-17T00:05:47.169Z,8.52
2022-08-17T00:08:16.555Z,10.73
2022-08-17T00:10:45.921Z,9.20
2022-08-17T00:13:21.639Z,10.02
2022-08-17T00:15:50.329Z,10.38
2022-08-17T00:19:01.550Z,9.25
2022-08-17T00:21:10.833Z,8.55
2022-08-17T00:23:47.818Z,8.02
2022-08-17T00:26:43.428Z,9.40
2022-08-17T00:29:08.280Z,7.10
2022-08-17T00:31:37.391Z,9.23
2022-08-17T00:34:10.101Z,7.35
2022-08-17T00:36:38.926Z,8.23
2022-08-17T00:39:07.518Z,8.68
2022-08-17T00:41:36.711Z,7.55
2022-08-17T00:44:12.316Z,6.53
2022-08-17T00:46:42.263Z,8.75
2022-08-17T00:49:13.405Z,6.68
2022-08-17T00:51:44.306Z,7.03
2022-08-17T00:54:14.354Z,7.40
2022-08-17T00:56:44.755Z,7.32
2022-08-17T00:59:15.518Z,8.82
2022-08-17T01:01:44.447Z,8.68
2022-08-17T01:04:14.836Z,11.20
2022-08-17T01:06:45.475Z,9.68
2022-08-17T01:09:14.619Z,8.20
2022-08-17T01:11:43.248Z,10.05
2022-08-17T01:14:11.841Z,8.18
2022-08-17T01:16:40.683Z,9.75
2022-08-17T01:19:12.826Z,9.48
2022-08-17T01:21:45.724Z,7.47
2022-08-17T01:24:16.171Z,9.05
2022-08-17T01:26:45.286Z,10.25
2022-08-17T01:29:14.309Z,9.38
2022-08-17T01:31:46.584Z,9.10
2022-08-17T01:34:16.359Z,9.07
2022-08-17T01:36:46.026Z,7.85
2022-08-17T01:39:20.001Z,10.60
2022-08-17T01:41:50.414Z,8.77
2022-08-17T01:44:19.373Z,7.35
2022-08-17T01:46:47.989Z,9.90
2022-08-17T01:49:16.668Z,12.30
2022-08-17T01:51:45.493Z,8.50
2022-08-17T01:54:15.476Z,9.77
2022-08-17T01:56:47.213Z,7.32
2022-08-17T01:59:16.749Z,8.27
2022-08-17T02:01:45.848Z,8.57
2022-08-17T02:04:14.802Z,8.85
2022-08-17T02:06:52.511Z,7.40
2022-08-17T02:09:25.639Z,7.03
2022-08-17T02:11:56.574Z,7.95
2022-08-17T02:14:25.677Z,7.78
2022-08-17T02:16:55.822Z,8.05
2022-08-17T02:19:24.500Z,7.40
2022-08-17T02:21:54.056Z,7.07
2022-08-17T02:24:59.568Z,8.05
2022-08-17T02:27:13.927Z,8.20
2022-08-17T02:29:42.534Z,8.18
2022-08-17T02:32:20.897Z,9.32
2022-08-17T02:34:56.378Z,13.18
2022-08-17T02:37:25.085Z,12.05
2022-08-17T02:39:53.919Z,102.25
2022-08-17T02:42:28.644Z,61.47
2022-08-17T02:44:57.994Z,92.80
2022-08-17T02:47:27.209Z,76.78
2022-08-17T02:49:56.199Z,74.78
2022-08-17T02:52:43.038Z,62.55
2022-08-17T02:55:14.459Z,72.93
2022-08-17T02:57:44.650Z,49.05
2022-08-17T03:00:14.562Z,46.83
2022-08-17T03:02:44.177Z,30.95
2022-08-17T03:05:13.774Z,23.90
2022-08-17T03:07:43.128Z,97.97
2022-08-17T03:10:12.796Z,100.82
2022-08-17T03:12:42.287Z,108.18
2022-08-17T03:15:15.343Z,100.38
2022-08-17T03:17:44.486Z,175.95
2022-08-17T03:20:14.253Z,125.65
2022-08-17T03:22:48.003Z,77.28
2022-08-17T03:25:23.484Z,49.78
2022-08-17T03:27:52.261Z,36.25
2022-08-17T03:30:22.621Z,28.75
2022-08-17T03:32:52.897Z,19.52
2022-08-17T03:35:23.049Z,19.52
2022-08-17T03:37:56.978Z,13.95
2022-08-17T03:40:55.703Z,11.68
2022-08-17T03:43:18.812Z,10.82
2022-08-17T03:46:06.382Z,11.82
2022-08-17T03:49:11.585Z,9.93
2022-08-17T03:51:57.904Z,7.35
2022-08-17T03:54:49.471Z,9.85
2022-08-17T03:57:19.297Z,9.38
2022-08-17T03:59:48.043Z,8.85
2022-08-17T04:02:20.312Z,8.25
2022-08-17T04:04:50.891Z,9.85
2022-08-17T04:07:20.541Z,9.17
2022-08-17T04:09:49.135Z,8.23
2022-08-17T04:12:18.198Z,6.68
2022-08-17T04:14:52.909Z,8.63
2022-08-17T04:17:25.808Z,9.40
2022-08-17T04:19:54.855Z,8.60
2022-08-17T04:22:32.446Z,13.18
2022-08-17T04:25:03.719Z,9.80
2022-08-17T04:27:32.350Z,11.23
2022-08-17T04:30:00.976Z,8.90
2022-08-17T04:33:00.650Z,8.45
2022-08-17T04:35:20.906Z,7.50
2022-08-17T04:37:49.520Z,9.88
2022-08-17T04:40:36.183Z,7.45
2022-08-17T04:43:06.073Z,9.13
2022-08-17T04:45:35.013Z,7.78
2022-08-17T04:48:05.633Z,7.57
2022-08-17T04:50:35.905Z,17.65
2022-08-17T04:53:05.089Z,7.47
2022-08-17T04:55:34.612Z,7.95
2022-08-17T04:58:03.433Z,7.45
2022-08-17T05:00:32.019Z,7.43
2022-08-17T05:03:00.678Z,8.95
2022-08-17T05:05:32.275Z,9.00
2022-08-17T05:08:03.591Z,7.65
2022-08-17T05:10:35.425Z,9.60
2022-08-17T05:13:06.983Z,9.25
2022-08-17T05:15:36.828Z,10.85
2022-08-17T05:18:05.804Z,8.25
2022-08-17T05:20:35.986Z,7.60
2022-08-17T05:23:07.122Z,8.40
2022-08-17T05:25:37.741Z,7.25
2022-08-17T05:28:07.001Z,7.63
2022-08-17T05:30:36.231Z,7.63
2022-08-17T05:33:06.438Z,7.57
2022-08-17T05:35:37.439Z,7.60
2022-08-17T05:38:06.127Z,7.10
2022-08-17T05:40:34.739Z,6.05
2022-08-17T05:43:07.269Z,10.65
2022-08-17T05:45:55.575Z,5.90
2022-08-17T05:48:39.327Z,6.00
2022-08-17T05:51:23.941Z,6.82
2022-08-17T05:53:59.615Z,6.15
2022-08-17T05:56:33.843Z,6.55
2022-08-17T05:59:07.035Z,6.25
2022-08-17T06:01:37.795Z,6.53
2022-08-17T06:04:14.961Z,6.80
2022-08-17T06:06:46.715Z,8.02
2022-08-17T06:11:53.453Z,8.55
2022-08-17T06:14:31.367Z,7.40
2022-08-17T06:17:02.456Z,6.70
2022-08-17T06:19:35.423Z,5.82
2022-08-17T06:22:05.847Z,7.07
2022-08-17T06:24:37.180Z,5.63
2022-08-17T06:27:11.027Z,6.60
2022-08-17T06:29:43.912Z,6.25
2022-08-17T06:32:14.796Z,6.28
2022-08-17T06:34:43.827Z,6.63
2022-08-17T06:37:19.937Z,5.82
2022-08-17T06:39:52.149Z,8.10
2022-08-17T06:43:02.331Z,6.30
2022-08-17T06:45:17.193Z,5.85
2022-08-17T06:47:49.291Z,5.85
2022-08-17T06:50:21.313Z,5.63
2022-08-17T06:52:53.179Z,5.32
2022-08-17T06:55:26.288Z,6.28
2022-08-17T06:57:59.901Z,5.75
2022-08-17T07:00:29.948Z,6.40
2022-08-17T07:03:00.995Z,6.95
2022-08-17T07:05:34.050Z,6.88
2022-08-17T07:08:04.781Z,6.53
2022-08-17T07:10:37.054Z,7.10
2022-08-17T07:13:15.625Z,9.35
2022-08-17T07:15:44.948Z,5.80
2022-08-17T07:18:13.566Z,6.53
2022-08-17T07:20:43.914Z,6.95
2022-08-17T07:23:19.019Z,6.63
2022-08-17T07:25:47.942Z,6.50
2022-08-17T07:28:22.907Z,6.75
2022-08-17T07:30:53.227Z,5.88
2022-08-17T07:33:23.736Z,5.93
2022-08-17T07:35:52.384Z,7.70
2022-08-17T07:38:24.842Z,7.82
2022-08-17T07:41:02.756Z,7.78
2022-08-17T07:43:34.039Z,6.30
2022-08-17T07:46:24.147Z,6.83
2022-08-17T07:48:53.988Z,6.10
2022-08-17T07:51:26.124Z,7.07
2022-08-17T07:54:12.890Z,8.13
2022-08-17T07:56:44.287Z,6.97
2022-08-17T07:59:23.356Z,6.45
2022-08-17T08:02:03.535Z,5.70
2022-08-17T08:04:59.198Z,7.15
2022-08-17T08:07:27.506Z,6.95
2022-08-17T08:10:02.828Z,8.35
2022-08-17T08:12:34.462Z,5.82
2022-08-17T08:15:10.418Z,5.78
2022-08-17T08:17:48.693Z,6.85
2022-08-17T08:20:50.864Z,6.07
2022-08-17T08:23:15.478Z,6.50
2022-08-17T08:25:53.302Z,8.45
2022-08-17T08:28:26.092Z,9.50
2022-08-17T08:31:00.884Z,7.07
2022-08-17T08:33:33.909Z,6.05
2022-08-17T08:36:08.953Z,6.18
2022-08-17T08:38:42.629Z,7.53
2022-08-17T08:41:21.831Z,7.20
2022-08-17T08:43:54.527Z,5.75
2022-08-17T08:46:30.028Z,7.28
2022-08-17T08:49:11.984Z,7.40
2022-08-17T08:51:47.824Z,9.30
2022-08-17T08:54:26.678Z,8.15
2022-08-17T08:57:23.282Z,8.43
2022-08-17T08:59:57.816Z,6.40
2022-08-17T09:02:47.978Z,7.47
2022-08-17T09:05:22.258Z,7.32
2022-08-17T09:07:57.679Z,7.75
2022-08-17T09:10:29.471Z,6.05
2022-08-17T09:15:41.257Z,6.05
2022-08-17T09:19:02.550Z,6.32
2022-08-17T09:21:07.949Z,6.53
2022-08-17T09:26:08.358Z,5.70
2022-08-17T09:28:37.946Z,8.25
2022-08-17T09:31:09.543Z,7.13
2022-08-17T09:33:42.495Z,6.63
2022-08-17T09:36:12.324Z,6.07
2022-08-17T09:38:43.551Z,8.02
2022-08-17T09:41:17.650Z,5.75
2022-08-17T09:43:51.158Z,6.10
2022-08-17T09:46:25.248Z,6.63
2022-08-17T09:48:58.705Z,6.53
2022-08-17T09:51:32.761Z,5.63
2022-08-17T09:54:21.093Z,6.57
2022-08-17T09:57:11.766Z,5.55
2022-08-17T09:59:49.453Z,7.05
2022-08-17T10:02:26.303Z,7.03
2022-08-17T10:04:58.812Z,6.28
2022-08-17T10:07:30.522Z,5.72
2022-08-17T10:12:33.317Z,5.20
2022-08-17T10:15:07.973Z,6.63
2022-08-17T10:17:40.734Z,6.72
2022-08-17T10:20:14.412Z,7.63
2022-08-17T10:23:05.460Z,6.38
2022-08-17T10:25:55.980Z,8.55
2022-08-17T10:28:29.496Z,6.38
2022-08-17T10:31:23.392Z,8.27
2022-08-17T10:33:53.414Z,5.40
2022-08-17T10:36:27.182Z,8.27
2022-08-17T10:39:03.589Z,8.35
2022-08-17T10:41:40.309Z,7.75
2022-08-17T10:44:38.144Z,7.20
2022-08-17T10:47:08.519Z,7.60
2022-08-17T10:49:37.687Z,8.00
2022-08-17T10:52:27.952Z,7.38
2022-08-17T10:55:13.645Z,6.60
2022-08-17T10:57:44.815Z,5.70
2022-08-17T11:00:37.062Z,5.97
2022-08-17T11:03:16.957Z,5.97
2022-08-17T11:05:53.915Z,10.15
2022-08-17T11:08:31.422Z,7.38
2022-08-17T11:11:15.692Z,8.52
2022-08-17T11:13:48.464Z,6.35
2022-08-17T11:16:29.899Z,6.13
2022-08-17T11:19:22.630Z,6.28
2022-08-17T11:21:59.946Z,6.55
2022-08-17T11:24:35.949Z,8.00
2022-08-17T11:27:12.170Z,7.00
2022-08-17T11:29:52.954Z,5.82
2022-08-17T11:32:47.361Z,7.15
2022-08-17T11:35:31.588Z,6.93
2022-08-17T11:38:14.043Z,7.38
2022-08-17T11:41:01.244Z,8.32
2022-08-17T11:43:50.963Z,7.43
2022-08-17T11:46:22.546Z,6.75
2022-08-17T11:49:15.528Z,6.07
2022-08-17T11:52:08.900Z,6.03
2022-08-17T11:54:39.188Z,6.05
2022-08-17T11:57:22.635Z,7.22
2022-08-17T12:00:10.663Z,7.22
2022-08-17T12:02:47.893Z,6.55
2022-08-17T12:05:28.692Z,6.03
2022-08-17T12:08:07.826Z,6.57
2022-08-17T12:10:37.628Z,7.10
2022-08-17T12:13:08.797Z,6.90
2022-08-17T12:15:41.254Z,6.75
2022-08-17T12:18:20.082Z,7.85
2022-08-17T12:20:56.657Z,8.25
2022-08-17T12:23:28.280Z,6.82
2022-08-17T12:25:59.379Z,7.05
2022-08-17T12:28:29.554Z,9.15
2022-08-17T12:31:01.122Z,7.68
2022-08-17T12:33:31.702Z,6.78
2022-08-17T12:36:02.857Z,7.05
2022-08-17T12:38:35.164Z,6.57
2022-08-17T12:41:25.391Z,8.18
2022-08-17T12:43:58.678Z,6.95
2022-08-17T12:46:27.305Z,6.30
2022-08-17T12:49:12.247Z,7.28
2022-08-17T12:51:44.431Z,6.72
2022-08-17T12:54:23.633Z,6.40
2022-08-17T12:56:52.259Z,8.18
2022-08-17T12:59:30.100Z,8.65
2022-08-17T13:01:59.638Z,6.78
2022-08-17T13:04:29.962Z,7.00
2022-08-17T13:07:00.048Z,9.25
2022-08-17T13:09:35.842Z,6.93
2022-08-17T13:12:10.944Z,7.57
2022-08-17T13:14:39.590Z,6.57
2022-08-17T13:17:13.322Z,8.00
2022-08-17T13:19:50.927Z,6.30
2022-08-17T13:22:24.113Z,5.68
2022-08-17T13:24:54.479Z,6.63
2022-08-17T13:27:24.237Z,6.03
2022-08-17T13:29:53.961Z,6.78
2022-08-17T13:32:24.041Z,6.95
2022-08-17T13:35:14.256Z,7.60
2022-08-17T13:37:58.138Z,6.20
2022-08-17T13:40:32.384Z,6.55
2022-08-17T13:43:03.352Z,7.95
2022-08-17T13:45:38.948Z,6.47
2022-08-17T13:48:11.831Z,7.13
2022-08-17T13:50:46.448Z,6.68
2022-08-17T13:53:22.299Z,6.90
2022-08-17T13:55:52.453Z,6.03
2022-08-17T13:58:22.411Z,5.43
2022-08-17T14:00:51.733Z,5.85
2022-08-17T14:03:21.510Z,6.55
2022-08-17T14:05:52.233Z,7.68
2022-08-17T14:08:21.537Z,7.00
2022-08-17T14:10:52.357Z,6.40
2022-08-17T14:13:21.252Z,7.30
2022-08-17T14:15:53.988Z,6.25
2022-08-17T14:18:53.507Z,6.47
2022-08-17T14:21:15.470Z,5.47
2022-08-17T14:23:49.076Z,6.03
2022-08-17T14:26:23.804Z,5.72
2022-08-17T14:28:56.652Z,7.82
2022-08-17T14:31:27.495Z,7.55
2022-08-17T14:33:58.935Z,6.88
2022-08-17T14:36:28.921Z,6.93
2022-08-17T14:38:57.564Z,5.68
2022-08-17T14:41:26.317Z,6.00
2022-08-17T14:43:55.103Z,6.53
2022-08-17T14:46:23.679Z,5.30
2022-08-17T14:48:57.156Z,6.68
2022-08-17T14:51:27.579Z,6.72
2022-08-17T14:53:58.312Z,6.35
2022-08-17T14:56:27.264Z,5.63
2022-08-17T14:59:00.369Z,8.43
2022-08-17T15:01:29.407Z,5.70
2022-08-17T15:03:58.259Z,7.65
2022-08-17T15:06:26.887Z,7.53
2022-08-17T15:08:56.975Z,7.15
2022-08-17T15:11:25.926Z,5.60
2022-08-17T15:13:54.476Z,5.78
2022-08-17T15:16:23.600Z,6.20
2022-08-17T15:18:52.714Z,5.28
2022-08-17T15:21:21.345Z,5.05
2022-08-17T15:23:49.899Z,6.18
2022-08-17T15:26:25.633Z,6.07
2022-08-17T15:28:57.364Z,6.65
2022-08-17T15:31:31.715Z,5.45
2022-08-17T15:34:01.459Z,6.20
2022-08-17T15:36:30.136Z,5.07
2022-08-17T15:38:58.995Z,4.65
2022-08-17T15:41:29.382Z,5.43
2022-08-17T15:43:58.034Z,5.07
2022-08-17T15:46:27.893Z,5.32
2022-08-17T15:48:58.936Z,4.95
2022-08-17T15:51:28.937Z,6.25
2022-08-17T15:53:58.473Z,5.20
2022-08-17T15:56:27.535Z,6.78
2022-08-17T15:58:57.518Z,7.47
2022-08-17T16:02:15.385Z,5.13
2022-08-17T16:04:30.401Z,5.97
2022-08-17T16:06:59.967Z,8.30
2022-08-17T16:09:29.116Z,7.97
2022-08-17T16:11:57.715Z,9.15
2022-08-17T16:14:33.895Z,6.72
2022-08-17T16:17:04.484Z,7.65
2022-08-17T16:19:34.302Z,5.93
2022-08-17T16:22:03.077Z,6.38
2022-08-17T16:24:32.121Z,6.68
2022-08-17T16:27:01.286Z,6.93
2022-08-17T16:29:31.303Z,8.63
2022-08-17T16:32:01.353Z,7.15
2022-08-17T16:34:30.005Z,6.80
2022-08-17T16:36:58.728Z,7.43
2022-08-17T16:39:28.123Z,6.90
2022-08-17T16:41:56.955Z,5.95
2022-08-17T16:44:27.478Z,6.00
2022-08-17T16:46:57.970Z,5.40
2022-08-17T16:49:35.538Z,5.95
2022-08-17T16:52:05.630Z,6.13
2022-08-17T16:54:35.474Z,6.60
2022-08-17T16:57:05.623Z,7.78
2022-08-17T16:59:41.018Z,6.55
2022-08-17T17:02:14.435Z,7.88
2022-08-17T17:04:45.152Z,5.30
2022-08-17T17:07:21.821Z,7.25
2022-08-17T17:09:52.683Z,5.43
2022-08-17T17:13:02.970Z,6.47
2022-08-17T17:15:10.696Z,5.68
2022-08-17T17:17:41.136Z,6.03
2022-08-17T17:20:12.169Z,5.05
2022-08-17T17:22:47.131Z,6.38
2022-08-17T17:25:19.377Z,6.35
2022-08-17T17:27:50.955Z,6.85
2022-08-17T17:30:21.750Z,7.68
2022-08-17T17:32:54.336Z,7.18
2022-08-17T17:35:26.136Z,5.90
2022-08-17T17:40:24.998Z,6.10
2022-08-17T17:42:55.132Z,8.85
2022-08-17T17:45:26.019Z,7.20
2022-08-17T17:47:56.032Z,5.73
2022-08-17T17:50:38.565Z,7.50
2022-08-17T17:53:10.207Z,8.48
2022-08-17T17:55:46.504Z,5.60
2022-08-17T17:58:21.491Z,6.50
2022-08-17T18:00:54.917Z,6.93
2022-08-17T18:03:32.440Z,6.72
2022-08-17T18:06:16.281Z,5.82
2022-08-17T18:08:52.912Z,7.70
2022-08-17T18:11:58.892Z,5.82
2022-08-17T18:14:33.994Z,6.05
2022-08-17T18:17:02.747Z,7.07
2022-08-17T18:19:32.926Z,6.15
2022-08-17T18:22:06.731Z,6.88
2022-08-17T18:24:37.926Z,7.40
2022-08-17T18:27:08.383Z,8.20
2022-08-17T18:29:42.248Z,6.20
2022-08-17T18:32:28.583Z,6.78
2022-08-17T18:34:59.743Z,6.63
2022-08-17T18:37:34.348Z,7.75
2022-08-17T18:40:10.311Z,8.63
2022-08-17T18:42:38.969Z,6.53
2022-08-17T18:45:07.891Z,8.45
2022-08-17T18:47:36.655Z,7.60
2022-08-17T18:50:20.288Z,9.48
2022-08-17T18:52:51.440Z,7.18
2022-08-17T18:55:22.499Z,7.65
2022-08-17T18:57:52.406Z,9.45
2022-08-17T19:00:34.414Z,8.77
2022-08-17T19:05:34.956Z,10.88
2022-08-17T19:08:18.425Z,8.75
2022-08-17T19:10:49.095Z,8.30
2022-08-17T19:13:23.958Z,8.47
2022-08-17T19:16:13.916Z,7.60
2022-08-17T19:18:47.370Z,8.18
2022-08-17T19:21:17.673Z,10.50
2022-08-17T19:23:54.124Z,88.15
2022-08-17T19:26:51.240Z,152.32
2022-08-17T19:29:19.518Z,369.45
2022-08-17T19:31:51.210Z,236.45
2022-08-17T19:34:30.149Z,215.23
2022-08-17T19:37:04.407Z,216.23
2022-08-17T19:39:38.678Z,200.38
2022-08-17T19:42:11.175Z,192.38
2022-08-17T19:44:53.019Z,162.75
2022-08-17T19:50:13.178Z,172.75
2022-08-17T19:55:19.836Z,238.98
2022-08-17T19:58:00.082Z,201.10
2022-08-17T20:00:31.024Z,257.08
2022-08-17T20:03:05.919Z,187.35
2022-08-17T20:05:54.461Z,152.45
2022-08-17T20:08:27.655Z,162.88
2022-08-17T20:10:59.317Z,218.77
2022-08-17T20:16:03.907Z,344.50
2022-08-17T20:18:37.136Z,258.20
2022-08-17T20:21:20.041Z,201.27
2022-08-17T20:23:53.537Z,184.55
2022-08-17T20:26:26.329Z,180.88
2022-08-17T20:29:09.615Z,166.70
2022-08-17T20:31:44.643Z,164.40
2022-08-17T20:34:36.689Z,148.77
2022-08-17T20:37:08.644Z,116.93
2022-08-17T20:39:39.879Z,106.85
2022-08-17T20:42:13.419Z,85.65
2022-08-17T20:44:43.035Z,84.22
2022-08-17T20:47:18.283Z,81.03
2022-08-17T20:49:52.145Z,68.55
2022-08-17T20:52:39.267Z,62.60
2022-08-17T20:55:08.436Z,60.80
2022-08-17T20:57:48.836Z,56.80
2022-08-17T21:00:50.712Z,55.80
2022-08-17T21:03:48.030Z,60.97
2022-08-17T21:06:23.187Z,50.72
2022-08-17T21:08:54.377Z,44.28
2022-08-17T21:12:02.346Z,40.40
2022-08-17T21:14:45.321Z,38.53
2022-08-17T21:17:31.814Z,35.55
2022-08-17T21:20:12.608Z,31.20
2022-08-17T21:22:49.133Z,28.73
2022-08-17T21:25:24.549Z,30.30
2022-08-17T21:27:59.690Z,27.00
2022-08-17T21:30:47.611Z,27.98
2022-08-17T21:33:23.801Z,25.98
2022-08-17T21:35:53.681Z,28.92
2022-08-17T21:38:36.964Z,27.58
2022-08-17T21:41:06.224Z,27.45
2022-08-17T21:43:36.514Z,28.42
2022-08-17T21:46:06.506Z,26.17
2022-08-17T21:48:42.524Z,25.08
2022-08-17T21:51:12.844Z,32.38
2022-08-17T21:53:53.831Z,73.60
2022-08-17T21:56:24.091Z,132.73
2022-08-17T21:58:56.381Z,170.35
2022-08-17T22:01:26.616Z,230.55
2022-08-17T22:04:00.147Z,234.15
2022-08-17T22:06:30.696Z,217.65
2022-08-17T22:09:02.323Z,256.08
2022-08-17T22:11:31.613Z,235.68
2022-08-17T22:14:05.144Z,198.75
2022-08-17T22:16:34.890Z,218.98
2022-08-17T22:19:03.572Z,232.60
2022-08-17T22:21:32.264Z,261.25
2022-08-17T22:24:06.747Z,258.88
2022-08-17T22:26:53.931Z,280.15
2022-08-17T22:29:42.617Z,231.55
2022-08-17T22:32:11.384Z,124.20
2022-08-17T22:34:40.000Z,115.65
2022-08-17T22:37:27.470Z,120.50
2022-08-17T22:40:00.468Z,109.72
2022-08-17T22:42:29.247Z,68.18
2022-08-17T22:44:57.845Z,39.25
2022-08-17T22:47:30.501Z,58.17
2022-08-17T22:50:00.734Z,54.92
2022-08-17T22:52:34.485Z,48.35
2022-08-17T22:55:24.492Z,36.75
2022-08-17T22:58:11.034Z,23.50
2022-08-17T23:00:41.045Z,18.70
2022-08-17T23:03:12.411Z,16.15
2022-08-17T23:05:45.042Z,15.50
2022-08-17T23:08:14.040Z,17.15
2022-08-17T23:10:45.301Z,13.45
2022-08-17T23:13:13.986Z,14.95
2022-08-17T23:15:43.039Z,12.10
2022-08-17T23:18:11.696Z,15.02
2022-08-17T23:20:41.928Z,12.00
2022-08-17T23:23:11.700Z,10.90
2022-08-17T23:25:40.302Z,10.57
2022-08-17T23:28:11.330Z,9.38
2022-08-17T23:30:41.595Z,11.93
2022-08-17T23:33:11.584Z,9.45
2022-08-17T23:35:41.092Z,9.48
2022-08-17T23:38:10.343Z,12.93
2022-08-17T23:40:39.986Z,13.30
2022-08-17T23:43:23.569Z,11.38
2022-08-17T23:45:54.161Z,10.70
2022-08-17T23:48:35.479Z,13.40
2022-08-17T23:51:09.144Z,10.35
2022-08-17T23:53:38.302Z,10.88
2022-08-17T23:56:10.267Z,10.88
2022-08-17T23:58:42.242Z,12.27
